Time;durP1;ratioP1;P1;durP2;ratioP2;P2;SDS_P1;SDS_P2;PMS_P1;PMS_P2;Temp;Humidity;BMP_temperature;BMP_pressure;BME280_temperature;BME280_humidity;BME280_pressure;Samples;Min_cycle;Max_cycle;Signal;HPM_P1;HPM_P2
2023/08/09 06:01:21;;;;;;;10.47;7.27;;;;;;;16.05;100.00;100516.66;5569202;31;177280;-87
2023/08/09 06:04:25;;;;;;;12.37;7.25;;;;;;;16.20;100.00;100519.19;5554852;32;34711;-87
2023/08/09 06:07:29;;;;;;;11.35;6.70;;;;;;;16.58;100.00;100520.91;5558186;32;33846;-86
2023/08/09 06:10:32;;;;;;;10.88;6.07;;;;;;;17.10;100.00;100518.06;5560051;32;34056;-84
2023/08/09 06:13:52;;;;;;;10.02;6.22;;;;;;;17.78;100.00;100514.69;5559789;32;34811;-83
2023/08/09 06:16:56;;;;;;;12.30;6.45;;;;;;;18.80;100.00;100521.84;5559301;32;34154;-83
2023/08/09 06:19:59;;;;;;;9.98;5.82;;;;;;;19.95;100.00;100516.75;5559984;32;34267;-83
2023/08/09 06:23:02;;;;;;;8.95;6.18;;;;;;;20.91;95.34;100514.69;5560023;32;34939;-83
2023/08/09 06:26:05;;;;;;;8.70;5.75;;;;;;;22.10;88.47;100527.03;5560832;32;34913;-83
2023/08/09 06:29:09;;;;;;;9.88;5.53;;;;;;;22.48;82.42;100529.69;5561106;32;33863;-84
2023/08/09 06:32:11;;;;;;;10.20;6.22;;;;;;;22.78;79.25;100529.53;5559734;32;34150;-84
2023/08/09 06:35:14;;;;;;;10.98;5.78;;;;;;;22.11;79.18;100531.44;5558687;32;33836;-83
2023/08/09 06:38:17;;;;;;;6.68;5.57;;;;;;;21.20;82.87;100520.09;5558235;32;33640;-87
2023/08/09 06:41:20;;;;;;;15.38;6.10;;;;;;;20.68;85.05;100518.47;5558638;32;33770;-87
2023/08/09 06:44:23;;;;;;;7.30;5.45;;;;;;;20.58;85.35;100521.13;5557745;32;35203;-83
2023/08/09 06:47:26;;;;;;;7.78;5.25;;;;;;;20.37;86.70;100517.66;5550785;32;34585;-84
2023/08/09 06:50:29;;;;;;;8.43;5.15;;;;;;;20.52;85.70;100523.53;5551485;32;36445;-84
2023/08/09 06:53:33;;;;;;;10.95;5.22;;;;;;;20.58;84.31;100525.66;5550760;32;34122;-84
2023/08/09 06:56:36;;;;;;;7.30;4.80;;;;;;;20.70;83.88;100521.87;5554774;32;34603;-83
2023/08/09 06:59:39;;;;;;;8.35;4.87;;;;;;;21.23;84.74;100518.94;5555487;32;33983;-83
2023/08/09 07:02:43;;;;;;;8.68;4.30;;;;;;;21.22;85.08;100519.94;5557331;32;34224;-84
2023/08/09 07:05:47;;;;;;;10.18;4.37;;;;;;;22.43;78.93;100518.50;5557724;32;33946;-84
2023/08/09 07:08:53;;;;;;;11.27;4.37;;;;;;;23.14;68.01;100518.75;5557274;32;34861;-85
2023/08/09 07:11:57;;;;;;;7.72;4.10;;;;;;;23.01;68.51;100527.22;5547423;32;34085;-85
2023/08/09 07:15:00;;;;;;;8.90;3.75;;;;;;;22.27;70.27;100511.03;5543923;32;34725;-85
2023/08/09 07:18:03;;;;;;;12.80;4.20;;;;;;;22.25;72.38;100516.59;5543852;32;35216;-85
2023/08/09 07:21:06;;;;;;;6.70;4.15;;;;;;;22.31;72.61;100509.72;5543284;32;34144;-84
2023/08/09 07:24:09;;;;;;;6.37;3.60;;;;;;;22.17;69.97;100516.50;5541842;32;34060;-83
2023/08/09 07:27:12;;;;;;;9.20;4.03;;;;;;;21.67;69.98;100504.94;5543200;32;34060;-85
2023/08/09 07:30:16;;;;;;;6.85;3.78;;;;;;;21.89;69.92;100513.75;5542338;32;34105;-85
2023/08/09 07:33:21;;;;;;;6.35;3.92;;;;;;;22.31;66.38;100507.00;5543002;32;33889;-83
2023/08/09 07:36:24;;;;;;;7.40;4.30;;;;;;;22.61;66.50;100515.84;5543153;32;35263;-82
2023/08/09 07:39:29;;;;;;;9.40;4.20;;;;;;;22.75;65.53;100509.94;5543364;32;34043;-82
2023/08/09 07:42:35;;;;;;;7.37;4.12;;;;;;;22.29;67.52;100501.78;5544758;32;35138;-82
2023/08/09 07:45:37;;;;;;;8.48;4.28;;;;;;;22.43;67.37;100500.41;5542012;32;34282;-82
2023/08/09 07:48:41;;;;;;;8.95;4.90;;;;;;;22.42;65.70;100501.41;5541434;32;33889;-82
2023/08/09 07:51:44;;;;;;;8.63;4.47;;;;;;;22.75;67.40;100504.53;5544891;32;34436;-82
2023/08/09 07:54:47;;;;;;;8.93;3.85;;;;;;;23.23;63.00;100509.66;5540993;32;34064;-82
2023/08/09 07:57:50;;;;;;;3.95;3.37;;;;;;;23.20;62.61;100507.28;5539476;32;34213;-82
2023/08/09 08:00:52;;;;;;;12.02;3.45;;;;;;;22.90;63.74;100501.28;5539759;32;34334;-82
2023/08/09 08:03:55;;;;;;;8.90;3.60;;;;;;;22.85;63.14;100503.59;5540341;32;33855;-82
2023/08/09 08:06:58;;;;;;;9.25;3.30;;;;;;;22.16;64.69;100502.13;5540522;32;34342;-82
2023/08/09 08:10:01;;;;;;;6.22;3.08;;;;;;;22.28;66.56;100502.75;5541791;32;34050;-82
2023/08/09 08:13:04;;;;;;;5.30;2.92;;;;;;;22.63;67.08;100500.34;5539924;32;34001;-82
2023/08/09 08:16:07;;;;;;;8.13;2.90;;;;;;;22.25;65.25;100511.19;5541253;32;33956;-83
2023/08/09 08:19:10;;;;;;;3.40;2.75;;;;;;;22.12;65.51;100505.28;5543263;32;34272;-83
2023/08/09 08:22:13;;;;;;;3.90;2.20;;;;;;;22.38;65.02;100510.81;5542865;32;34163;-83
2023/08/09 08:25:19;;;;;;;3.67;2.70;;;;;;;22.00;67.19;100505.47;5542594;32;34225;-83
2023/08/09 08:28:22;;;;;;;7.10;2.60;;;;;;;22.00;64.88;100505.47;5542556;32;33914;-83
2023/08/09 08:31:26;;;;;;;6.87;2.78;;;;;;;22.07;63.07;100511.09;5542690;32;33953;-84
2023/08/09 08:34:31;;;;;;;4.22;2.25;;;;;;;22.15;63.37;100500.41;5542735;32;34074;-83
2023/08/09 08:37:34;;;;;;;4.53;2.58;;;;;;;22.01;64.20;100511.69;5544853;32;34158;-83
2023/08/09 08:40:38;;;;;;;8.45;2.80;;;;;;;22.38;64.36;100508.09;5546338;32;33664;-83
2023/08/09 08:43:41;;;;;;;5.00;2.70;;;;;;;22.52;63.39;100511.34;5548033;32;35219;-83
2023/08/09 08:46:44;;;;;;;5.78;2.35;;;;;;;22.40;64.79;100505.25;5547348;32;35110;-86
2023/08/09 08:49:53;;;;;;;4.78;2.10;;;;;;;22.70;62.65;100506.81;5543989;32;33934;-87
2023/08/09 08:56:48;;;;;;;3.50;2.30;;;;;;;23.63;61.70;100509.34;4934048;29;20128;-87
2023/08/09 09:03:29;;;;;;;4.03;2.33;;;;;;;23.77;59.40;100499.75;3977979;29;20073;-87
2023/08/09 09:06:32;;;;;;;11.00;2.33;;;;;;;23.54;59.17;100503.00;5565283;26;34673;-87
2023/08/09 09:09:43;;;;;;;5.22;2.30;;;;;;;23.76;60.60;100498.06;5552039;32;33840;-87
2023/08/09 09:12:49;;;;;;;2.50;2.28;;;;;;;22.66;62.48;100499.16;5552302;32;33950;-86
2023/08/09 09:15:54;;;;;;;5.20;2.50;;;;;;;22.94;62.84;100494.56;5551594;32;34016;-87
2023/08/09 09:18:57;;;;;;;4.75;2.05;;;;;;;23.01;61.37;100494.78;5569196;26;33508;-87
2023/08/09 09:22:00;;;;;;;3.20;2.15;;;;;;;22.98;62.58;100497.81;5602486;26;35193;-87
2023/08/09 09:25:10;;;;;;;2.50;2.25;;;;;;;22.35;62.49;100481.41;5571419;31;31703;-87
2023/08/09 09:28:18;;;;;;;4.50;2.37;;;;;;;22.46;62.32;100486.59;5571727;32;34099;-87
2023/08/09 09:31:21;;;;;;;3.80;2.60;;;;;;;22.67;63.67;100492.78;5617909;26;33829;-87
2023/08/09 09:34:29;;;;;;;5.37;2.45;;;;;;;22.28;64.19;100496.53;5637432;26;34145;-87
2023/08/09 09:37:32;;;;;;;6.12;2.53;;;;;;;22.19;65.78;100498.28;5551374;32;33821;-87
2023/08/09 09:40:36;;;;;;;3.90;2.15;;;;;;;22.47;67.63;100490.12;5581912;26;34049;-87
